createdAt,value
2018-06-07T00:02:24.709Z,23.37
2018-06-07T00:04:53.413Z,26.23
2018-06-07T00:07:22.155Z,26.23
2018-06-07T00:09:50.866Z,21.83
2018-06-07T00:12:19.570Z,33.87
2018-06-07T00:14:48.413Z,21.40
2018-06-07T00:17:17.142Z,20.67
2018-06-07T00:19:45.838Z,22.67
2018-06-07T00:22:14.552Z,22.67
2018-06-07T00:24:43.320Z,26.47
2018-06-07T00:27:12.018Z,19.43
2018-06-07T00:29:40.759Z,22.53
2018-06-07T00:32:09.444Z,17.97
2018-06-07T00:34:38.139Z,17.33
2018-06-07T00:37:07.033Z,33.93
2018-06-07T00:39:35.761Z,19.03
2018-06-07T00:42:04.500Z,26.60
2018-06-07T00:44:33.243Z,27.20
2018-06-07T00:47:01.956Z,20.90
2018-06-07T00:49:30.661Z,29.40
2018-06-07T00:51:59.505Z,18.77
2018-06-07T00:54:28.193Z,34.03
2018-06-07T00:57:08.122Z,28.27
2018-06-07T00:59:36.871Z,21.20
2018-06-07T01:02:05.659Z,31.20
2018-06-07T01:04:34.406Z,21.87
2018-06-07T01:07:03.105Z,21.97
2018-06-07T01:09:31.821Z,23.53
2018-06-07T01:12:00.587Z,23.60
2018-06-07T01:14:29.310Z,41.50
2018-06-07T01:16:58.016Z,24.37
2018-06-07T01:19:26.773Z,67.13
2018-06-07T01:21:55.509Z,26.33
2018-06-07T01:24:24.223Z,25.30
2018-06-07T01:26:52.954Z,25.90
2018-06-07T01:29:32.634Z,20.37
2018-06-07T01:34:11.654Z,28.03
2018-06-07T01:36:40.519Z,27.13
2018-06-07T01:39:10.262Z,19.97
2018-06-07T01:41:39.041Z,22.70
2018-06-07T01:44:07.755Z,16.97
2018-06-07T01:46:36.489Z,17.83
2018-06-07T01:49:05.243Z,19.60
2018-06-07T01:51:33.954Z,20.53
2018-06-07T01:54:02.705Z,34.80
2018-06-07T01:56:31.542Z,21.10
2018-06-07T01:59:00.391Z,20.20
2018-06-07T02:01:29.275Z,38.97
2018-06-07T02:03:58.017Z,18.50
2018-06-07T02:06:26.870Z,17.93
2018-06-07T02:08:55.582Z,17.80
2018-06-07T02:11:24.330Z,23.80
2018-06-07T02:13:53.306Z,18.40
2018-06-07T02:16:22.030Z,20.90
2018-06-07T02:18:50.770Z,22.60
2018-06-07T02:21:19.477Z,18.83
2018-06-07T02:23:48.181Z,28.13
2018-06-07T02:26:16.934Z,23.30
2018-06-07T02:28:45.634Z,22.40
2018-06-07T02:31:14.327Z,17.47
2018-06-07T02:33:43.069Z,22.43
2018-06-07T02:36:11.825Z,20.37
2018-06-07T02:38:40.749Z,17.53
2018-06-07T02:41:09.504Z,25.67
2018-06-07T02:43:38.193Z,21.17
2018-06-07T02:46:06.917Z,24.43
2018-06-07T02:48:35.761Z,19.77
2018-06-07T02:51:04.821Z,21.63
2018-06-07T02:53:33.705Z,27.57
2018-06-07T02:56:02.457Z,21.10
2018-06-07T02:58:31.161Z,20.63
2018-06-07T03:00:59.854Z,20.83
2018-06-07T03:03:28.580Z,19.77
2018-06-07T03:05:57.293Z,19.07
2018-06-07T03:08:26.025Z,20.33
2018-06-07T03:10:54.830Z,19.17
2018-06-07T03:13:23.549Z,18.63
2018-06-07T03:15:52.250Z,20.60
2018-06-07T03:18:20.981Z,26.93
2018-06-07T03:20:49.697Z,19.23
2018-06-07T03:23:18.430Z,15.97
2018-06-07T03:25:47.179Z,15.00
2018-06-07T03:28:15.926Z,20.50
2018-06-07T03:30:44.649Z,16.80
2018-06-07T03:33:13.417Z,22.57
2018-06-07T03:35:42.156Z,16.63
2018-06-07T03:38:10.874Z,16.07
2018-06-07T03:40:39.599Z,21.17
2018-06-07T03:43:08.318Z,14.03
2018-06-07T03:45:37.111Z,18.90
2018-06-07T03:48:06.074Z,20.97
2018-06-07T03:50:34.781Z,24.03
2018-06-07T03:53:03.545Z,13.47
2018-06-07T03:55:32.299Z,13.53
2018-06-07T03:58:01.035Z,12.60
2018-06-07T04:00:29.741Z,12.23
2018-06-07T04:02:58.466Z,15.03
2018-06-07T04:05:27.618Z,12.23
2018-06-07T04:07:56.309Z,11.80
2018-06-07T04:10:25.033Z,16.13
2018-06-07T04:12:53.739Z,12.23
2018-06-07T04:15:22.447Z,12.30
2018-06-07T04:17:51.173Z,13.00
2018-06-07T04:20:19.895Z,12.60
2018-06-07T04:22:48.617Z,12.10
2018-06-07T04:25:17.382Z,8.03
2018-06-07T04:27:46.074Z,11.60
2018-06-07T04:30:14.971Z,12.77
2018-06-07T04:32:43.691Z,17.07
2018-06-07T04:35:12.424Z,11.83
2018-06-07T04:37:41.134Z,7.00
2018-06-07T04:40:09.855Z,7.47
2018-06-07T04:42:38.555Z,14.30
2018-06-07T04:45:07.267Z,6.20
2018-06-07T04:47:36.018Z,15.03
2018-06-07T04:50:04.746Z,19.00
2018-06-07T04:52:33.547Z,20.33
2018-06-07T04:55:02.375Z,9.23
2018-06-07T04:57:31.093Z,10.40
2018-06-07T05:00:00.235Z,13.20
2018-06-07T05:02:28.976Z,16.67
2018-06-07T05:04:57.877Z,23.50
2018-06-07T05:07:26.595Z,13.03
2018-06-07T05:09:55.330Z,8.13
2018-06-07T05:12:24.193Z,17.83
2018-06-07T05:14:52.914Z,8.83
2018-06-07T05:17:21.675Z,8.63
2018-06-07T05:19:50.389Z,10.67
2018-06-07T05:22:19.122Z,14.10
2018-06-07T05:24:47.885Z,18.37
2018-06-07T05:27:16.625Z,11.13
2018-06-07T05:29:45.351Z,18.60
2018-06-07T05:32:14.074Z,15.03
2018-06-07T05:34:42.769Z,11.50
2018-06-07T05:37:11.495Z,6.63
2018-06-07T05:39:40.182Z,30.07
2018-06-07T05:42:08.888Z,6.93
2018-06-07T05:44:37.609Z,8.50
2018-06-07T05:47:06.391Z,8.53
2018-06-07T05:49:35.096Z,14.20
2018-06-07T05:52:03.889Z,8.63
2018-06-07T05:54:32.594Z,5.33
2018-06-07T05:57:01.298Z,10.80
2018-06-07T05:59:30.022Z,7.83
2018-06-07T06:01:58.775Z,8.30
2018-06-07T06:04:27.473Z,30.43
2018-06-07T06:06:56.196Z,10.80
2018-06-07T06:09:24.972Z,31.67
2018-06-07T06:11:53.641Z,14.37
2018-06-07T06:14:22.403Z,7.07
2018-06-07T06:16:51.113Z,5.80
2018-06-07T06:19:19.826Z,18.13
2018-06-07T06:21:48.559Z,7.47
2018-06-07T06:24:17.274Z,5.87
2018-06-07T06:26:46.044Z,22.00
2018-06-07T06:29:14.778Z,11.57
2018-06-07T06:31:43.566Z,7.67
2018-06-07T06:34:12.269Z,12.00
2018-06-07T06:36:41.013Z,12.03
2018-06-07T06:39:09.771Z,5.43
2018-06-07T06:41:38.915Z,7.27
2018-06-07T06:44:08.191Z,6.00
2018-06-07T06:46:37.517Z,10.13
2018-06-07T06:49:06.535Z,8.43
2018-06-07T06:51:35.267Z,13.13
2018-06-07T06:54:04.299Z,6.93
2018-06-07T06:56:33.033Z,6.10
2018-06-07T06:59:01.873Z,23.70
2018-06-07T07:01:30.826Z,4.37
2018-06-07T07:03:59.542Z,8.07
2018-06-07T07:06:28.273Z,8.73
2018-06-07T07:08:57.000Z,4.73
2018-06-07T07:11:26.259Z,3.83
2018-06-07T07:13:55.473Z,14.43
2018-06-07T07:16:24.627Z,3.77
2018-06-07T07:18:53.356Z,4.60
2018-06-07T07:21:22.546Z,14.90
2018-06-07T07:23:51.261Z,4.20
2018-06-07T07:26:20.495Z,10.50
2018-06-07T07:28:49.253Z,5.43
2018-06-07T07:31:17.975Z,15.83
2018-06-07T07:33:46.679Z,8.53
2018-06-07T07:36:15.443Z,5.43
2018-06-07T07:38:44.161Z,5.20
2018-06-07T07:41:12.881Z,8.70
2018-06-07T07:43:41.728Z,4.83
2018-06-07T07:46:10.436Z,7.80
2018-06-07T07:48:39.140Z,5.00
2018-06-07T07:51:08.136Z,6.63
2018-06-07T07:53:36.923Z,11.60
2018-06-07T07:56:05.817Z,11.87
2018-06-07T07:58:34.563Z,5.53
2018-06-07T08:01:03.367Z,9.00
2018-06-07T08:03:32.179Z,11.20
2018-06-07T08:06:01.054Z,13.03
2018-06-07T08:08:29.859Z,6.63
2018-06-07T08:10:58.664Z,5.43
2018-06-07T08:13:27.438Z,7.87
2018-06-07T08:15:56.165Z,8.03
2018-06-07T08:18:25.756Z,14.00
2018-06-07T08:20:54.535Z,9.23
2018-06-07T08:23:23.279Z,9.93
2018-06-07T08:25:52.037Z,9.00
2018-06-07T08:28:20.799Z,8.20
2018-06-07T08:30:49.735Z,6.23
2018-06-07T08:33:18.535Z,5.30
2018-06-07T08:35:47.327Z,6.20
2018-06-07T08:38:16.163Z,13.27
2018-06-07T08:40:44.890Z,6.33
2018-06-07T08:43:13.662Z,5.33
2018-06-07T08:45:43.262Z,15.20
2018-06-07T08:48:12.568Z,5.93
2018-06-07T08:50:41.315Z,11.50
2018-06-07T08:53:10.037Z,7.87
2018-06-07T08:55:38.738Z,5.50
2018-06-07T08:58:07.714Z,11.93
2018-06-07T09:00:36.611Z,4.57
2018-06-07T09:03:05.609Z,5.50
2018-06-07T09:05:34.326Z,5.72
2018-06-07T09:08:03.058Z,9.10
2018-06-07T09:10:31.970Z,7.65
2018-06-07T09:13:00.776Z,4.45
2018-06-07T09:15:29.534Z,5.83
2018-06-07T09:17:58.225Z,5.35
2018-06-07T09:20:26.979Z,6.42
2018-06-07T09:22:55.661Z,4.80
2018-06-07T09:25:24.353Z,5.58
2018-06-07T09:27:53.074Z,5.45
2018-06-07T09:30:21.764Z,4.37
2018-06-07T09:32:50.454Z,4.90
2018-06-07T09:35:19.206Z,5.33
2018-06-07T09:37:48.141Z,5.55
2018-06-07T09:40:16.957Z,5.30
2018-06-07T09:42:45.677Z,5.75
2018-06-07T09:45:14.406Z,8.33
2018-06-07T09:47:43.134Z,11.83
2018-06-07T09:50:11.878Z,4.62
2018-06-07T09:52:40.630Z,5.75
2018-06-07T09:55:13.253Z,4.33
2018-06-07T09:57:42.808Z,11.83
2018-06-07T10:00:25.976Z,7.85
2018-06-07T10:02:55.138Z,5.28
2018-06-07T10:05:23.858Z,15.63
2018-06-07T10:07:52.699Z,4.40
2018-06-07T10:10:21.545Z,6.20
2018-06-07T10:12:50.256Z,7.58
2018-06-07T10:15:19.003Z,10.25
2018-06-07T10:17:47.719Z,8.93
2018-06-07T10:20:16.486Z,12.35
2018-06-07T10:22:45.235Z,5.15
2018-06-07T10:25:13.954Z,6.05
2018-06-07T10:27:42.641Z,13.55
2018-06-07T10:30:11.381Z,10.80
2018-06-07T10:32:40.065Z,7.70
2018-06-07T10:35:08.798Z,5.40
2018-06-07T10:37:37.548Z,6.15
2018-06-07T10:40:06.238Z,6.00
2018-06-07T10:42:34.939Z,8.00
2018-06-07T10:45:03.673Z,5.90
2018-06-07T10:47:32.383Z,5.78
2018-06-07T10:50:01.102Z,9.65
2018-06-07T10:52:29.958Z,9.98
2018-06-07T10:54:58.777Z,6.70
2018-06-07T10:57:27.652Z,6.08
2018-06-07T10:59:56.403Z,5.37
2018-06-07T11:02:25.110Z,6.55
2018-06-07T11:04:53.817Z,5.65
2018-06-07T11:07:22.578Z,4.95
2018-06-07T11:09:51.277Z,4.87
2018-06-07T11:12:20.019Z,4.87
2018-06-07T11:14:48.741Z,5.42
2018-06-07T11:17:17.447Z,6.22
2018-06-07T11:19:46.150Z,6.42
2018-06-07T11:22:14.935Z,5.60
2018-06-07T11:24:43.666Z,5.20
2018-06-07T11:27:12.396Z,9.40
2018-06-07T11:29:41.170Z,5.80
2018-06-07T11:32:09.894Z,11.78
2018-06-07T11:34:38.682Z,6.78
2018-06-07T11:37:07.426Z,7.80
2018-06-07T11:39:36.149Z,7.70
2018-06-07T11:42:04.971Z,8.43
2018-06-07T11:44:33.747Z,8.23
2018-06-07T11:47:02.690Z,8.50
2018-06-07T11:49:31.475Z,6.50
2018-06-07T11:52:00.255Z,10.65
2018-06-07T11:54:29.914Z,9.15
2018-06-07T11:56:58.676Z,12.33
2018-06-07T11:59:27.415Z,10.08
2018-06-07T12:01:56.159Z,9.53
2018-06-07T12:04:24.981Z,8.00
2018-06-07T12:06:53.776Z,4.77
2018-06-07T12:09:22.524Z,5.43
2018-06-07T12:11:51.246Z,8.60
2018-06-07T12:14:19.991Z,6.53
2018-06-07T12:16:48.693Z,13.40
2018-06-07T12:19:17.436Z,16.07
2018-06-07T12:21:46.378Z,7.33
2018-06-07T12:24:15.093Z,18.93
2018-06-07T12:26:43.838Z,14.40
2018-06-07T12:29:12.604Z,12.43
2018-06-07T12:31:41.350Z,14.60
2018-06-07T12:34:10.046Z,10.63
2018-06-07T12:36:38.771Z,7.67
2018-06-07T12:39:08.869Z,5.43
2018-06-07T12:41:37.658Z,8.10
2018-06-07T12:44:06.507Z,13.37
2018-06-07T12:46:35.258Z,4.10
2018-06-07T12:49:04.035Z,11.30
2018-06-07T12:51:32.778Z,5.70
2018-06-07T12:54:01.641Z,3.70
2018-06-07T12:56:30.382Z,7.53
2018-06-07T12:58:59.199Z,5.07
2018-06-07T13:01:27.959Z,8.20
2018-06-07T13:03:56.806Z,12.23
2018-06-07T13:06:25.646Z,4.60
2018-06-07T13:08:54.334Z,6.50
2018-06-07T13:11:23.412Z,6.67
2018-06-07T13:13:52.473Z,14.93
2018-06-07T13:16:21.490Z,6.70
2018-06-07T13:18:50.789Z,5.90
2018-06-07T13:21:20.024Z,8.37
2018-06-07T13:23:48.994Z,11.60
2018-06-07T13:26:18.471Z,5.37
2018-06-07T13:28:47.746Z,11.37
2018-06-07T13:31:16.446Z,6.60
2018-06-07T13:33:45.206Z,13.50
2018-06-07T13:36:13.976Z,9.50
2018-06-07T13:38:42.721Z,6.80
2018-06-07T13:41:11.466Z,25.43
2018-06-07T13:43:40.224Z,13.53
2018-06-07T13:46:08.952Z,21.97
2018-06-07T13:48:37.689Z,14.53
2018-06-07T13:51:06.452Z,17.23
2018-06-07T13:53:35.210Z,9.70
2018-06-07T13:56:04.026Z,6.60
2018-06-07T13:58:32.790Z,18.50
2018-06-07T14:01:01.595Z,9.53
2018-06-07T14:03:30.324Z,7.47
2018-06-07T14:05:59.189Z,20.07
2018-06-07T14:08:27.905Z,10.87
2018-06-07T14:10:56.619Z,16.20
2018-06-07T14:13:25.370Z,9.43
2018-06-07T14:15:54.079Z,8.60
2018-06-07T14:18:22.777Z,17.40
2018-06-07T14:20:51.564Z,12.30
2018-06-07T14:23:20.282Z,12.53
2018-06-07T14:25:49.016Z,10.50
2018-06-07T14:28:17.778Z,7.80
2018-06-07T14:30:46.504Z,14.20
2018-06-07T14:33:15.238Z,10.87
2018-06-07T14:35:43.974Z,12.13
2018-06-07T14:38:12.740Z,16.23
2018-06-07T14:40:41.438Z,10.33
2018-06-07T14:43:10.181Z,14.50
2018-06-07T14:45:38.873Z,7.67
2018-06-07T14:48:07.686Z,17.63
2018-06-07T14:50:36.423Z,15.70
2018-06-07T14:53:05.692Z,22.80
2018-06-07T14:55:34.890Z,14.47
2018-06-07T14:58:03.666Z,10.90
2018-06-07T15:00:32.381Z,13.40
2018-06-07T15:03:01.089Z,16.33
2018-06-07T15:05:29.971Z,20.03
2018-06-07T15:07:58.694Z,11.10
2018-06-07T15:10:27.416Z,10.57
2018-06-07T15:12:56.177Z,11.37
2018-06-07T15:15:25.103Z,9.60
2018-06-07T15:17:53.829Z,16.20
2018-06-07T15:20:22.593Z,18.60
2018-06-07T15:22:51.334Z,14.30
2018-06-07T15:25:20.132Z,13.30
2018-06-07T15:27:48.910Z,11.07
2018-06-07T15:30:17.657Z,10.90
2018-06-07T15:32:46.387Z,12.17
2018-06-07T15:35:15.145Z,14.03
2018-06-07T15:37:43.882Z,13.73
2018-06-07T15:40:12.608Z,11.77
2018-06-07T15:42:41.361Z,15.10
2018-06-07T15:45:10.091Z,13.30
2018-06-07T15:47:38.841Z,21.37
2018-06-07T15:50:07.597Z,12.20
2018-06-07T15:52:36.326Z,11.13
2018-06-07T15:55:05.046Z,15.97
2018-06-07T15:57:33.797Z,11.70
2018-06-07T16:00:02.520Z,14.53
2018-06-07T16:02:31.249Z,9.67
2018-06-07T16:05:00.620Z,10.30
2018-06-07T16:07:29.334Z,9.23
2018-06-07T16:09:58.053Z,11.43
2018-06-07T16:12:26.794Z,12.57
2018-06-07T16:14:55.510Z,8.50
2018-06-07T16:17:24.280Z,14.13
2018-06-07T16:19:53.038Z,8.43
2018-06-07T16:22:21.761Z,12.40
2018-06-07T16:24:50.515Z,19.53
2018-06-07T16:27:19.274Z,22.37
2018-06-07T16:29:48.001Z,8.10
2018-06-07T16:32:16.881Z,10.60
2018-06-07T16:34:45.642Z,12.83
2018-06-07T16:37:14.357Z,16.70
2018-06-07T16:39:43.102Z,19.23
2018-06-07T16:42:11.900Z,10.17
2018-06-07T16:44:40.794Z,8.03
2018-06-07T16:47:09.542Z,11.43
2018-06-07T16:49:38.281Z,19.53
2018-06-07T16:52:07.046Z,24.37
2018-06-07T16:54:35.805Z,17.90
2018-06-07T16:57:04.511Z,18.17
2018-06-07T16:59:33.253Z,9.57
2018-06-07T17:02:02.001Z,13.97
2018-06-07T17:04:31.760Z,12.97
2018-06-07T17:07:00.495Z,12.83
2018-06-07T17:09:29.264Z,10.50
2018-06-07T17:11:57.998Z,16.33
2018-06-07T17:14:26.763Z,13.90
2018-06-07T17:16:55.549Z,16.23
2018-06-07T17:19:25.007Z,13.73
2018-06-07T17:21:53.767Z,12.43
2018-06-07T17:24:22.565Z,37.30
2018-06-07T17:26:51.299Z,12.83
2018-06-07T17:29:20.060Z,12.20
2018-06-07T17:31:48.807Z,14.40
2018-06-07T17:34:17.555Z,10.63
2018-06-07T17:36:46.261Z,13.27
2018-06-07T17:39:15.023Z,13.50
2018-06-07T17:41:43.750Z,11.03
2018-06-07T17:44:12.459Z,22.87
2018-06-07T17:46:41.212Z,19.53
2018-06-07T17:49:09.917Z,13.13
2018-06-07T17:51:38.626Z,11.70
2018-06-07T17:54:07.414Z,18.83
2018-06-07T17:56:36.134Z,22.60
2018-06-07T17:59:04.887Z,10.90
2018-06-07T18:01:33.642Z,12.00
2018-06-07T18:04:02.405Z,8.73
2018-06-07T18:06:31.165Z,11.57
2018-06-07T18:09:00.035Z,17.83
2018-06-07T18:11:28.967Z,15.30
2018-06-07T18:13:57.732Z,13.37
2018-06-07T18:16:26.509Z,14.20
2018-06-07T18:18:55.287Z,24.30
2018-06-07T18:21:24.017Z,31.97
2018-06-07T18:23:52.875Z,12.67
2018-06-07T18:26:21.744Z,9.90
2018-06-07T18:28:50.527Z,15.50
2018-06-07T18:31:18.322Z,17.63
2018-06-07T18:33:47.101Z,14.27
2018-06-07T18:36:15.948Z,11.70
2018-06-07T18:38:44.882Z,12.13
2018-06-07T18:41:13.593Z,16.73
2018-06-07T18:43:42.332Z,10.27
2018-06-07T18:46:11.146Z,15.63
2018-06-07T18:48:39.886Z,10.57
2018-06-07T18:51:08.647Z,12.10
2018-06-07T18:53:37.460Z,15.37
2018-06-07T18:56:06.209Z,14.50
2018-06-07T18:58:34.983Z,10.63
2018-06-07T19:01:03.774Z,9.60
2018-06-07T19:03:32.550Z,10.47
2018-06-07T19:06:01.326Z,23.00
2018-06-07T19:08:34.301Z,12.63
2018-06-07T19:11:03.204Z,13.90
2018-06-07T19:13:37.138Z,13.57
2018-06-07T19:16:06.016Z,18.83
2018-06-07T19:18:34.888Z,13.40
2018-06-07T19:21:03.896Z,21.60
2018-06-07T19:23:33.021Z,23.40
2018-06-07T19:26:06.982Z,13.10
2018-06-07T19:28:35.856Z,16.77
2018-06-07T19:31:04.597Z,25.73
2018-06-07T19:33:38.484Z,16.33
2018-06-07T19:36:08.792Z,20.50
2018-06-07T19:38:41.748Z,20.67
2018-06-07T19:41:15.614Z,20.37
2018-06-07T19:43:44.353Z,16.97
2018-06-07T19:46:13.066Z,16.77
2018-06-07T19:48:41.773Z,15.37
2018-06-07T19:51:10.829Z,19.50
2018-06-07T19:53:39.541Z,29.00
2018-06-07T19:56:08.253Z,47.13
2018-06-07T19:58:36.978Z,19.27
2018-06-07T20:01:05.701Z,29.50
2018-06-07T20:03:34.418Z,25.40
2018-06-07T20:06:03.189Z,37.37
2018-06-07T20:08:31.969Z,28.30
2018-06-07T20:11:00.709Z,27.83
2018-06-07T20:13:29.483Z,46.87
2018-06-07T20:15:58.185Z,19.27
2018-06-07T20:18:26.905Z,33.37
2018-06-07T20:20:55.661Z,25.17
2018-06-07T20:23:24.401Z,20.80
2018-06-07T20:25:53.270Z,21.07
2018-06-07T20:28:22.043Z,16.53
2018-06-07T20:30:51.027Z,21.40
2018-06-07T20:33:19.784Z,31.63
2018-06-07T20:35:48.701Z,19.53
2018-06-07T20:38:17.452Z,15.37
2018-06-07T20:40:46.174Z,27.57
2018-06-07T20:43:14.901Z,25.10
2018-06-07T20:45:43.680Z,29.03
2018-06-07T20:48:12.421Z,18.40
2018-06-07T20:50:41.162Z,18.33
2018-06-07T20:53:09.873Z,17.07
2018-06-07T20:55:38.586Z,16.33
2018-06-07T20:58:07.358Z,23.53
2018-06-07T21:00:36.043Z,28.00
2018-06-07T21:03:05.012Z,29.83
2018-06-07T21:05:33.731Z,43.00
2018-06-07T21:08:02.561Z,38.63
2018-06-07T21:10:31.250Z,34.50
2018-06-07T21:13:00.097Z,32.50
2018-06-07T21:15:28.805Z,23.70
2018-06-07T21:17:57.550Z,20.23
2018-06-07T21:20:26.278Z,28.47
2018-06-07T21:22:55.010Z,26.33
2018-06-07T21:25:23.706Z,23.77
2018-06-07T21:27:52.496Z,23.27
2018-06-07T21:30:21.208Z,22.10
2018-06-07T21:32:49.995Z,17.00
2018-06-07T21:35:18.825Z,14.93
2018-06-07T21:37:47.519Z,24.73
2018-06-07T21:40:16.257Z,18.13
2018-06-07T21:42:45.018Z,22.10
2018-06-07T21:45:13.876Z,18.60
2018-06-07T21:47:42.596Z,20.93
2018-06-07T21:50:11.349Z,26.33
2018-06-07T21:52:40.162Z,20.37
2018-06-07T21:55:08.881Z,32.23
2018-06-07T21:57:37.600Z,24.70
2018-06-07T22:00:07.914Z,32.43
2018-06-07T22:02:36.806Z,26.70
2018-06-07T22:05:05.631Z,24.60
2018-06-07T22:07:34.347Z,27.87
2018-06-07T22:10:03.061Z,19.67
2018-06-07T22:12:31.803Z,26.00
2018-06-07T22:15:00.527Z,23.87
2018-06-07T22:17:29.291Z,24.43
2018-06-07T22:20:00.099Z,34.30
2018-06-07T22:22:30.825Z,19.53
2018-06-07T22:24:59.530Z,24.90
2018-06-07T22:27:28.289Z,28.57
2018-06-07T22:29:56.989Z,22.00
2018-06-07T22:32:25.873Z,26.30
2018-06-07T22:34:54.626Z,33.03
2018-06-07T22:37:23.460Z,26.57
2018-06-07T22:39:52.182Z,30.63
2018-06-07T22:42:20.909Z,23.60
2018-06-07T22:44:49.614Z,27.23
2018-06-07T22:47:18.321Z,30.63
2018-06-07T22:49:47.077Z,29.97
2018-06-07T22:52:15.839Z,22.43
2018-06-07T22:54:44.665Z,24.60
2018-06-07T22:57:13.521Z,30.37
2018-06-07T22:59:42.264Z,32.00
2018-06-07T23:02:10.969Z,26.93
2018-06-07T23:04:39.717Z,31.43
2018-06-07T23:07:08.422Z,25.53
2018-06-07T23:09:37.139Z,29.43
2018-06-07T23:12:05.907Z,33.20
2018-06-07T23:14:34.614Z,25.70
2018-06-07T23:17:03.334Z,27.03
2018-06-07T23:19:32.310Z,32.50
2018-06-07T23:22:01.046Z,30.93
2018-06-07T23:24:29.767Z,33.17
2018-06-07T23:26:58.510Z,29.10
2018-06-07T23:29:27.251Z,30.07
2018-06-07T23:31:55.958Z,29.23
2018-06-07T23:34:24.710Z,29.83
2018-06-07T23:36:53.635Z,30.43
2018-06-07T23:39:22.365Z,61.17
2018-06-07T23:41:51.109Z,58.17
2018-06-07T23:44:19.856Z,39.90
2018-06-07T23:46:48.676Z,75.83
2018-06-07T23:49:17.427Z,24.23
2018-06-07T23:51:46.159Z,30.33
2018-06-07T23:54:14.877Z,31.20
2018-06-07T23:56:43.637Z,31.77
2018-06-07T23:59:12.369Z,38.93
